createdAt,value
2019-04-21T00:01:30.719Z,45.88
2019-04-21T00:05:57.149Z,46.14
2019-04-21T00:10:09.061Z,46.43
2019-04-21T00:14:00.989Z,46.70
2019-04-21T00:18:03.399Z,46.77
2019-04-21T00:22:19.434Z,46.69
2019-04-21T00:26:27.861Z,46.36
2019-04-21T00:30:40.089Z,46.21
2019-04-21T00:34:23.956Z,46.14
2019-04-21T00:39:03.063Z,45.99
2019-04-21T00:42:58.530Z,46.03
2019-04-21T00:47:00.654Z,46.38
2019-04-21T00:51:25.156Z,46.93
2019-04-21T00:55:41.012Z,46.77
2019-04-21T00:59:31.856Z,47.04
2019-04-21T01:03:37.296Z,46.87
2019-04-21T01:07:41.620Z,46.46
2019-04-21T01:11:49.576Z,46.47
2019-04-21T01:15:52.819Z,46.64
2019-04-21T01:19:57.235Z,46.80
2019-04-21T01:23:46.474Z,47.13
2019-04-21T01:28:09.947Z,47.30
2019-04-21T01:32:24.192Z,47.60
2019-04-21T01:36:24.152Z,48.04
2019-04-21T01:40:34.892Z,48.50
2019-04-21T01:48:46.046Z,48.91
2019-04-21T01:53:02.350Z,49.53
2019-04-21T01:57:07.565Z,49.53
2019-04-21T02:01:22.787Z,49.40
2019-04-21T02:05:32.640Z,49.58
2019-04-21T02:09:38.981Z,49.59
2019-04-21T02:13:53.767Z,49.46
2019-04-21T02:17:54.078Z,49.23
2019-04-21T02:21:51.361Z,49.23
2019-04-21T02:26:14.094Z,49.29
2019-04-21T02:30:22.340Z,49.55
2019-04-21T02:34:32.317Z,49.69
2019-04-21T02:43:07.247Z,49.90
2019-04-21T02:50:51.215Z,50.44
2019-04-21T02:55:06.276Z,50.84
2019-04-21T02:59:23.128Z,50.91
2019-04-21T03:07:42.804Z,50.96
2019-04-21T03:12:01.489Z,50.83
2019-04-21T03:16:04.941Z,50.87
2019-04-21T03:20:03.089Z,50.87
2019-04-21T03:24:31.185Z,50.89
2019-04-21T03:28:26.290Z,50.92
2019-04-21T03:36:50.340Z,50.92
2019-04-21T03:40:37.920Z,50.86
2019-04-21T03:44:45.642Z,50.95
2019-04-21T03:49:02.358Z,51.10
2019-04-21T04:01:22.201Z,51.27
2019-04-21T04:06:09.580Z,51.30
2019-04-21T04:10:13.508Z,51.26
2019-04-21T04:18:39.118Z,51.23
2019-04-21T04:22:49.692Z,51.23
2019-04-21T04:35:10.817Z,51.75
2019-04-21T04:39:42.765Z,51.89
2019-04-21T04:43:39.534Z,51.94
2019-04-21T04:47:46.633Z,52.02
2019-04-21T04:52:19.209Z,52.16
2019-04-21T04:55:58.870Z,52.35
2019-04-21T05:00:19.859Z,52.39
2019-04-21T05:04:16.055Z,52.51
2019-04-21T05:08:34.783Z,52.59
2019-04-21T05:12:24.486Z,52.70
2019-04-21T05:16:43.189Z,52.75
2019-04-21T05:20:29.798Z,52.81
2019-04-21T05:24:28.915Z,52.77
2019-04-21T05:28:32.847Z,52.70
2019-04-21T05:33:05.633Z,52.52
2019-04-21T05:37:35.180Z,52.53
2019-04-21T05:41:36.186Z,52.45
2019-04-21T05:45:51.848Z,52.01
2019-04-21T05:50:06.513Z,51.79
2019-04-21T05:54:23.086Z,51.63
2019-04-21T05:58:26.327Z,51.68
2019-04-21T06:02:30.611Z,51.08
2019-04-21T06:06:39.501Z,48.40
2019-04-21T06:10:47.710Z,48.16
2019-04-21T06:23:02.995Z,46.00
2019-04-21T06:27:13.417Z,45.61
2019-04-21T06:31:30.784Z,45.64
2019-04-21T06:36:07.320Z,45.15
2019-04-21T06:40:12.736Z,44.84
2019-04-21T06:44:01.346Z,44.46
2019-04-21T06:48:11.220Z,44.48
2019-04-21T06:52:29.888Z,43.46
2019-04-21T06:56:23.806Z,43.45
2019-04-21T07:00:18.539Z,42.74
2019-04-21T07:04:31.744Z,42.52
2019-04-21T07:08:51.487Z,41.26
2019-04-21T07:12:39.236Z,42.67
2019-04-21T07:20:53.530Z,42.13
2019-04-21T07:25:05.682Z,41.96
2019-04-21T07:29:14.227Z,42.44
2019-04-21T07:33:44.785Z,42.05
2019-04-21T07:37:25.576Z,42.15
2019-04-21T07:41:22.740Z,42.33
2019-04-21T07:45:31.850Z,42.11
2019-04-21T07:49:57.364Z,41.66
2019-04-21T07:54:28.711Z,41.54
2019-04-21T07:58:10.786Z,41.87
2019-04-21T08:02:20.193Z,41.23
2019-04-21T08:06:31.896Z,41.32
2019-04-21T08:10:28.521Z,40.92
2019-04-21T08:14:35.289Z,40.39
2019-04-21T08:26:57.407Z,40.20
2019-04-21T08:31:01.884Z,39.84
2019-04-21T08:35:48.579Z,40.16
2019-04-21T08:39:12.741Z,40.12
2019-04-21T08:43:30.752Z,39.40
2019-04-21T08:47:25.627Z,39.29
2019-04-21T09:00:41.681Z,38.26
2019-04-21T09:04:39.625Z,38.46
2019-04-21T09:08:45.930Z,37.60
2019-04-21T09:12:56.292Z,37.93
2019-04-21T09:16:53.381Z,37.87
2019-04-21T09:21:08.909Z,37.43
2019-04-21T09:25:09.549Z,37.14
2019-04-21T09:29:05.910Z,36.54
2019-04-21T09:33:05.106Z,36.53
2019-04-21T09:37:20.802Z,36.07
2019-04-21T09:41:17.599Z,34.81
2019-04-21T09:45:22.546Z,35.07
2019-04-21T09:49:30.886Z,35.06
2019-04-21T09:53:36.434Z,33.94
2019-04-21T09:57:46.505Z,34.55
2019-04-21T10:01:57.171Z,33.91
2019-04-21T10:05:51.871Z,33.84
2019-04-21T10:09:56.337Z,33.98
2019-04-21T10:14:00.981Z,33.97
2019-04-21T10:18:10.836Z,33.89
2019-04-21T10:22:15.081Z,33.97
2019-04-21T10:26:19.394Z,33.58
2019-04-21T10:30:24.629Z,32.69
2019-04-21T10:34:29.394Z,33.10
2019-04-21T10:38:42.337Z,33.02
2019-04-21T10:42:40.424Z,32.59
2019-04-21T10:46:47.355Z,32.60
2019-04-21T10:50:50.848Z,32.40
2019-04-21T10:55:12.495Z,31.77
2019-04-21T10:59:02.434Z,31.80
2019-04-21T11:03:25.004Z,32.46
2019-04-21T11:08:07.660Z,31.61
2019-04-21T11:11:59.938Z,31.47
2019-04-21T11:16:05.486Z,30.84
2019-04-21T11:20:10.830Z,31.45
2019-04-21T11:24:16.456Z,30.46
2019-04-21T11:28:22.783Z,30.79
2019-04-21T11:32:27.391Z,31.19
2019-04-21T11:36:33.230Z,29.82
2019-04-21T11:40:38.039Z,30.08
2019-04-21T11:44:42.392Z,30.92
2019-04-21T11:48:46.632Z,30.82
2019-04-21T11:52:50.850Z,30.88
2019-04-21T11:56:55.073Z,30.53
2019-04-21T12:01:00.709Z,30.59
2019-04-21T12:05:05.574Z,29.72
2019-04-21T12:09:10.481Z,31.32
2019-04-21T12:13:16.343Z,30.56
2019-04-21T12:17:20.646Z,29.81
2019-04-21T12:21:25.511Z,30.00
2019-04-21T12:25:34.828Z,30.43
2019-04-21T12:29:39.897Z,29.74
2019-04-21T12:33:56.193Z,29.63
2019-04-21T12:38:00.647Z,29.55
2019-04-21T12:42:04.982Z,29.58
2019-04-21T12:46:09.733Z,30.26
2019-04-21T12:50:14.876Z,29.02
2019-04-21T12:54:19.671Z,29.87
2019-04-21T12:58:23.973Z,29.49
2019-04-21T13:02:29.548Z,29.35
2019-04-21T13:06:33.946Z,29.88
2019-04-21T13:10:38.223Z,28.72
2019-04-21T13:14:42.425Z,29.74
2019-04-21T13:18:47.129Z,27.69
2019-04-21T13:22:52.394Z,28.76
2019-04-21T13:26:59.556Z,28.43
2019-04-21T13:31:04.293Z,28.32
2019-04-21T13:35:10.712Z,29.08
2019-04-21T13:40:01.758Z,28.50
2019-04-21T13:43:45.441Z,29.21
2019-04-21T13:47:50.376Z,29.06
2019-04-21T13:51:56.023Z,28.84
2019-04-21T13:56:00.552Z,29.20
2019-04-21T14:00:05.891Z,28.09
2019-04-21T14:04:11.522Z,28.67
2019-04-21T14:08:15.741Z,28.27
2019-04-21T14:12:21.189Z,28.54
2019-04-21T14:16:26.615Z,26.96
2019-04-21T14:20:33.298Z,27.49
2019-04-21T14:24:38.698Z,27.18
2019-04-21T14:28:43.064Z,28.11
2019-04-21T14:32:47.709Z,28.04
2019-04-21T14:36:52.964Z,28.50
2019-04-21T14:40:57.168Z,27.68
2019-04-21T14:45:03.092Z,27.48
2019-04-21T14:49:35.293Z,27.36
2019-04-21T14:54:01.802Z,26.87
2019-04-21T14:58:07.342Z,27.01
2019-04-21T15:02:11.820Z,27.02
2019-04-21T15:06:16.070Z,27.93
2019-04-21T15:10:24.321Z,28.10
2019-04-21T15:14:26.769Z,28.29
2019-04-21T15:18:30.949Z,27.70
2019-04-21T15:22:36.432Z,27.43
2019-04-21T15:26:41.856Z,26.98
2019-04-21T15:30:47.017Z,27.61
2019-04-21T15:34:52.020Z,27.73
2019-04-21T15:38:57.938Z,27.94
2019-04-21T15:43:02.454Z,28.01
2019-04-21T15:47:08.106Z,28.66
2019-04-21T15:51:13.628Z,28.37
2019-04-21T15:55:42.378Z,28.36
2019-04-21T15:59:55.105Z,27.86
2019-04-21T16:04:00.939Z,28.53
2019-04-21T16:08:05.888Z,28.77
2019-04-21T16:12:11.598Z,28.46
2019-04-21T16:16:16.736Z,28.32
2019-04-21T16:20:21.891Z,28.29
2019-04-21T16:24:27.276Z,28.03
2019-04-21T16:28:33.200Z,27.87
2019-04-21T16:32:38.393Z,27.76
2019-04-21T16:36:43.560Z,28.02
2019-04-21T16:40:55.335Z,28.07
2019-04-21T16:44:54.800Z,28.41
2019-04-21T16:48:59.987Z,28.78
2019-04-21T16:53:17.367Z,29.24
2019-04-21T16:57:30.016Z,30.01
2019-04-21T17:01:36.443Z,29.98
2019-04-21T17:05:42.277Z,30.40
2019-04-21T17:09:46.740Z,30.29
2019-04-21T17:13:51.933Z,30.50
2019-04-21T17:18:16.235Z,30.49
2019-04-21T17:22:03.821Z,30.37
2019-04-21T17:26:08.953Z,30.38
2019-04-21T17:30:14.794Z,30.58
2019-04-21T17:34:24.668Z,30.75
2019-04-21T17:38:26.121Z,30.90
2019-04-21T17:42:42.164Z,31.19
2019-04-21T17:46:46.044Z,31.50
2019-04-21T17:50:51.562Z,31.70
2019-04-21T17:55:14.070Z,31.92
2019-04-21T17:59:46.128Z,32.05
2019-04-21T18:03:58.984Z,32.30
2019-04-21T18:07:45.401Z,32.62
2019-04-21T18:11:51.125Z,33.42
2019-04-21T18:15:51.675Z,33.73
2019-04-21T18:19:45.781Z,34.10
2019-04-21T18:24:01.327Z,34.05
2019-04-21T18:27:58.657Z,34.14
2019-04-21T18:32:02.999Z,34.38
2019-04-21T18:36:32.395Z,34.01
2019-04-21T18:40:36.867Z,34.15
2019-04-21T18:45:40.370Z,34.47
2019-04-21T18:49:21.591Z,34.60
2019-04-21T18:53:44.824Z,35.62
2019-04-21T18:57:42.851Z,36.30
2019-04-21T19:01:51.536Z,36.98
2019-04-21T19:05:54.479Z,37.27
2019-04-21T19:10:22.336Z,38.17
2019-04-21T19:14:35.650Z,38.52
2019-04-21T19:22:34.198Z,39.40
2019-04-21T19:26:46.796Z,39.71
2019-04-21T19:30:57.502Z,39.38
2019-04-21T19:34:40.404Z,39.93
2019-04-21T19:38:54.093Z,40.59
2019-04-21T19:43:00.371Z,41.00
2019-04-21T19:47:13.853Z,41.25
2019-04-21T19:51:15.184Z,41.70
2019-04-21T19:55:06.610Z,41.97
2019-04-21T19:59:18.595Z,41.98
2019-04-21T20:03:16.926Z,42.06
2019-04-21T20:07:38.128Z,41.98
2019-04-21T20:11:41.967Z,42.11
2019-04-21T20:15:54.029Z,42.36
2019-04-21T20:19:40.282Z,42.80
2019-04-21T20:23:45.163Z,43.17
2019-04-21T20:28:00.701Z,43.58
2019-04-21T20:32:20.047Z,44.14
2019-04-21T20:36:21.057Z,44.92
2019-04-21T20:40:21.799Z,45.96
2019-04-21T20:44:29.520Z,46.67
2019-04-21T20:48:34.445Z,46.77
2019-04-21T20:52:50.889Z,46.70
2019-04-21T20:56:49.710Z,46.86
2019-04-21T21:01:19.004Z,47.00
2019-04-21T21:04:52.693Z,46.90
2019-04-21T21:09:06.121Z,46.85
2019-04-21T21:13:21.197Z,46.78
2019-04-21T21:17:36.096Z,46.66
2019-04-21T21:21:24.439Z,46.51
2019-04-21T21:25:41.811Z,46.27
2019-04-21T21:29:41.857Z,45.79
2019-04-21T21:33:50.662Z,45.33
2019-04-21T21:37:54.898Z,45.09
2019-04-21T21:41:45.213Z,45.08
2019-04-21T21:45:49.953Z,45.37
2019-04-21T21:50:01.245Z,46.09
2019-04-21T21:53:59.029Z,46.65
2019-04-21T21:58:05.814Z,46.95
2019-04-21T22:02:16.661Z,47.13
2019-04-21T22:06:21.513Z,47.45
2019-04-21T22:10:23.175Z,47.56
2019-04-21T22:14:33.987Z,47.81
2019-04-21T22:18:56.789Z,48.29
2019-04-21T22:22:53.620Z,49.26
2019-04-21T22:26:47.298Z,49.75
2019-04-21T22:30:54.675Z,50.23
2019-04-21T22:35:01.980Z,50.49
2019-04-21T22:39:21.006Z,50.57
2019-04-21T22:43:19.656Z,50.68
2019-04-21T22:47:22.004Z,50.54
2019-04-21T22:51:30.266Z,50.77
2019-04-21T22:55:31.623Z,50.97
2019-04-21T22:59:35.647Z,51.23
2019-04-21T23:03:50.152Z,51.38
2019-04-21T23:07:50.202Z,51.50
2019-04-21T23:11:56.230Z,51.69
2019-04-21T23:16:01.315Z,52.03
2019-04-21T23:20:27.800Z,52.19
2019-04-21T23:24:35.503Z,52.76
2019-04-21T23:28:42.206Z,53.18
2019-04-21T23:32:35.961Z,52.94
2019-04-21T23:36:32.231Z,52.74
2019-04-21T23:40:39.783Z,52.21
2019-04-21T23:44:47.508Z,52.21
2019-04-21T23:49:02.357Z,52.31
2019-04-21T23:52:55.130Z,52.18
2019-04-21T23:57:05.046Z,52.23
